sensor_id;sensor_type;location;lat;lon;timestamp;P1;durP1;ratioP1;P2;durP2;ratioP2
18176;SDS011;9213;50.858;3.964;2023-06-19T00:02:27;6.25;;;4.18;;
18176;SDS011;9213;50.858;3.964;2023-06-19T00:04:54;6.85;;;4.18;;
18176;SDS011;9213;50.858;3.964;2023-06-19T00:07:21;5.05;;;3.80;;
18176;SDS011;9213;50.858;3.964;2023-06-19T00:09:48;5.20;;;4.50;;
18176;SDS011;9213;50.858;3.964;2023-06-19T00:12:16;7.93;;;4.00;;
18176;SDS011;9213;50.858;3.964;2023-06-19T00:14:43;6.63;;;4.40;;
18176;SDS011;9213;50.858;3.964;2023-06-19T00:17:10;6.03;;;4.35;;
18176;SDS011;9213;50.858;3.964;2023-06-19T00:19:41;5.85;;;4.82;;
18176;SDS011;9213;50.858;3.964;2023-06-19T00:22:08;5.50;;;4.72;;
18176;SDS011;9213;50.858;3.964;2023-06-19T00:24:35;6.63;;;4.60;;
18176;SDS011;9213;50.858;3.964;2023-06-19T00:27:02;7.15;;;4.68;;
18176;SDS011;9213;50.858;3.964;2023-06-19T00:29:31;9.10;;;5.20;;
18176;SDS011;9213;50.858;3.964;2023-06-19T00:31:58;7.50;;;4.85;;
18176;SDS011;9213;50.858;3.964;2023-06-19T00:34:25;5.00;;;4.50;;
18176;SDS011;9213;50.858;3.964;2023-06-19T00:36:54;7.18;;;5.18;;
18176;SDS011;9213;50.858;3.964;2023-06-19T00:39:21;7.43;;;5.53;;
18176;SDS011;9213;50.858;3.964;2023-06-19T00:41:49;6.57;;;5.07;;
18176;SDS011;9213;50.858;3.964;2023-06-19T00:44:17;9.05;;;5.50;;
18176;SDS011;9213;50.858;3.964;2023-06-19T00:46:45;6.45;;;4.90;;
18176;SDS011;9213;50.858;3.964;2023-06-19T00:49:13;7.35;;;4.97;;
18176;SDS011;9213;50.858;3.964;2023-06-19T00:51:41;5.85;;;5.20;;
18176;SDS011;9213;50.858;3.964;2023-06-19T00:54:08;5.72;;;5.22;;
18176;SDS011;9213;50.858;3.964;2023-06-19T00:56:35;6.45;;;5.72;;
18176;SDS011;9213;50.858;3.964;2023-06-19T00:59:05;5.80;;;5.20;;
18176;SDS011;9213;50.858;3.964;2023-06-19T01:01:47;8.68;;;5.45;;
18176;SDS011;9213;50.858;3.964;2023-06-19T01:04:14;8.57;;;5.88;;
18176;SDS011;9213;50.858;3.964;2023-06-19T01:06:42;7.75;;;6.05;;
18176;SDS011;9213;50.858;3.964;2023-06-19T01:09:17;7.65;;;5.53;;
18176;SDS011;9213;50.858;3.964;2023-06-19T01:11:47;8.10;;;5.63;;
18176;SDS011;9213;50.858;3.964;2023-06-19T01:14:18;8.10;;;6.40;;
18176;SDS011;9213;50.858;3.964;2023-06-19T01:16:49;8.63;;;6.25;;
18176;SDS011;9213;50.858;3.964;2023-06-19T01:19:18;6.85;;;5.72;;
18176;SDS011;9213;50.858;3.964;2023-06-19T01:21:46;9.50;;;6.07;;
18176;SDS011;9213;50.858;3.964;2023-06-19T01:24:14;9.48;;;6.70;;
18176;SDS011;9213;50.858;3.964;2023-06-19T01:26:41;10.38;;;6.43;;
18176;SDS011;9213;50.858;3.964;2023-06-19T01:29:11;8.82;;;6.65;;
18176;SDS011;9213;50.858;3.964;2023-06-19T01:31:42;7.90;;;7.03;;
18176;SDS011;9213;50.858;3.964;2023-06-19T01:34:12;8.52;;;7.28;;
18176;SDS011;9213;50.858;3.964;2023-06-19T01:36:42;11.23;;;7.35;;
18176;SDS011;9213;50.858;3.964;2023-06-19T01:39:09;13.38;;;7.60;;
18176;SDS011;9213;50.858;3.964;2023-06-19T01:41:40;9.43;;;8.15;;
18176;SDS011;9213;50.858;3.964;2023-06-19T01:44:08;11.30;;;8.50;;
18176;SDS011;9213;50.858;3.964;2023-06-19T01:46:35;14.80;;;9.73;;
18176;SDS011;9213;50.858;3.964;2023-06-19T01:49:05;12.85;;;9.10;;
18176;SDS011;9213;50.858;3.964;2023-06-19T01:51:34;11.00;;;9.85;;
18176;SDS011;9213;50.858;3.964;2023-06-19T01:54:01;11.20;;;9.73;;
18176;SDS011;9213;50.858;3.964;2023-06-19T01:56:29;12.32;;;8.98;;
18176;SDS011;9213;50.858;3.964;2023-06-19T01:58:58;14.63;;;10.15;;
18176;SDS011;9213;50.858;3.964;2023-06-19T02:01:25;16.05;;;10.10;;
18176;SDS011;9213;50.858;3.964;2023-06-19T02:03:52;13.60;;;9.98;;
18176;SDS011;9213;50.858;3.964;2023-06-19T02:06:19;13.00;;;9.57;;
18176;SDS011;9213;50.858;3.964;2023-06-19T02:08:46;15.13;;;11.38;;
18176;SDS011;9213;50.858;3.964;2023-06-19T02:11:13;12.65;;;9.75;;
18176;SDS011;9213;50.858;3.964;2023-06-19T02:13:40;11.98;;;10.23;;
18176;SDS011;9213;50.858;3.964;2023-06-19T02:16:09;13.85;;;10.25;;
18176;SDS011;9213;50.858;3.964;2023-06-19T02:18:36;15.23;;;10.32;;
18176;SDS011;9213;50.858;3.964;2023-06-19T02:21:03;11.82;;;10.23;;
18176;SDS011;9213;50.858;3.964;2023-06-19T02:23:29;13.50;;;11.20;;
18176;SDS011;9213;50.858;3.964;2023-06-19T02:25:56;12.65;;;10.52;;
18176;SDS011;9213;50.858;3.964;2023-06-19T02:28:24;11.43;;;10.23;;
18176;SDS011;9213;50.858;3.964;2023-06-19T02:30:51;13.15;;;9.75;;
18176;SDS011;9213;50.858;3.964;2023-06-19T02:33:19;12.57;;;9.90;;
18176;SDS011;9213;50.858;3.964;2023-06-19T02:35:46;12.75;;;10.27;;
18176;SDS011;9213;50.858;3.964;2023-06-19T02:38:13;12.27;;;10.20;;
18176;SDS011;9213;50.858;3.964;2023-06-19T02:40:40;12.00;;;10.30;;
18176;SDS011;9213;50.858;3.964;2023-06-19T02:43:07;10.55;;;8.93;;
18176;SDS011;9213;50.858;3.964;2023-06-19T02:45:34;10.52;;;8.05;;
18176;SDS011;9213;50.858;3.964;2023-06-19T02:48:01;9.07;;;7.57;;
18176;SDS011;9213;50.858;3.964;2023-06-19T02:50:29;9.13;;;6.88;;
18176;SDS011;9213;50.858;3.964;2023-06-19T02:52:56;7.70;;;6.78;;
18176;SDS011;9213;50.858;3.964;2023-06-19T02:55:24;7.95;;;7.05;;
18176;SDS011;9213;50.858;3.964;2023-06-19T02:57:51;8.70;;;6.20;;
18176;SDS011;9213;50.858;3.964;2023-06-19T03:00:18;10.25;;;6.68;;
18176;SDS011;9213;50.858;3.964;2023-06-19T03:02:45;8.52;;;7.07;;
18176;SDS011;9213;50.858;3.964;2023-06-19T03:05:13;8.20;;;7.00;;
18176;SDS011;9213;50.858;3.964;2023-06-19T03:07:42;10.55;;;7.30;;
18176;SDS011;9213;50.858;3.964;2023-06-19T03:10:10;8.13;;;7.35;;
18176;SDS011;9213;50.858;3.964;2023-06-19T03:12:36;8.05;;;6.97;;
18176;SDS011;9213;50.858;3.964;2023-06-19T03:15:04;8.23;;;6.85;;
18176;SDS011;9213;50.858;3.964;2023-06-19T03:17:31;10.27;;;7.65;;
18176;SDS011;9213;50.858;3.964;2023-06-19T03:19:58;9.05;;;7.45;;
18176;SDS011;9213;50.858;3.964;2023-06-19T03:22:25;8.40;;;7.60;;
18176;SDS011;9213;50.858;3.964;2023-06-19T03:24:53;10.45;;;7.53;;
18176;SDS011;9213;50.858;3.964;2023-06-19T03:27:20;7.93;;;7.00;;
18176;SDS011;9213;50.858;3.964;2023-06-19T03:29:47;9.10;;;8.20;;
18176;SDS011;9213;50.858;3.964;2023-06-19T03:32:14;9.85;;;8.55;;
18176;SDS011;9213;50.858;3.964;2023-06-19T03:34:42;10.02;;;8.43;;
18176;SDS011;9213;50.858;3.964;2023-06-19T03:37:08;9.55;;;8.60;;
18176;SDS011;9213;50.858;3.964;2023-06-19T03:39:35;12.70;;;9.20;;
18176;SDS011;9213;50.858;3.964;2023-06-19T03:42:04;12.32;;;9.50;;
18176;SDS011;9213;50.858;3.964;2023-06-19T03:44:31;10.38;;;9.20;;
18176;SDS011;9213;50.858;3.964;2023-06-19T03:46:58;10.45;;;9.45;;
18176;SDS011;9213;50.858;3.964;2023-06-19T03:49:25;14.30;;;9.85;;
18176;SDS011;9213;50.858;3.964;2023-06-19T03:51:52;11.98;;;10.27;;
18176;SDS011;9213;50.858;3.964;2023-06-19T03:54:19;11.68;;;10.45;;
18176;SDS011;9213;50.858;3.964;2023-06-19T03:56:46;12.40;;;10.38;;
18176;SDS011;9213;50.858;3.964;2023-06-19T03:59:15;12.55;;;10.70;;
18176;SDS011;9213;50.858;3.964;2023-06-19T04:01:41;12.07;;;10.27;;
18176;SDS011;9213;50.858;3.964;2023-06-19T04:04:08;13.20;;;10.88;;
18176;SDS011;9213;50.858;3.964;2023-06-19T04:06:35;12.80;;;10.77;;
18176;SDS011;9213;50.858;3.964;2023-06-19T04:09:02;14.57;;;11.50;;
18176;SDS011;9213;50.858;3.964;2023-06-19T04:11:29;14.65;;;11.45;;
18176;SDS011;9213;50.858;3.964;2023-06-19T04:13:56;15.23;;;11.70;;
18176;SDS011;9213;50.858;3.964;2023-06-19T04:16:25;13.35;;;11.68;;
18176;SDS011;9213;50.858;3.964;2023-06-19T04:18:51;17.52;;;12.55;;
18176;SDS011;9213;50.858;3.964;2023-06-19T04:21:18;19.33;;;12.77;;
18176;SDS011;9213;50.858;3.964;2023-06-19T04:23:45;15.68;;;12.75;;
18176;SDS011;9213;50.858;3.964;2023-06-19T04:26:12;16.23;;;13.07;;
18176;SDS011;9213;50.858;3.964;2023-06-19T04:28:39;19.25;;;13.32;;
18176;SDS011;9213;50.858;3.964;2023-06-19T04:31:06;17.65;;;14.05;;
18176;SDS011;9213;50.858;3.964;2023-06-19T04:33:35;16.73;;;14.75;;
18176;SDS011;9213;50.858;3.964;2023-06-19T04:36:02;16.10;;;14.40;;
18176;SDS011;9213;50.858;3.964;2023-06-19T04:38:29;18.38;;;14.85;;
18176;SDS011;9213;50.858;3.964;2023-06-19T04:40:56;17.33;;;14.98;;
18176;SDS011;9213;50.858;3.964;2023-06-19T04:43:23;19.05;;;14.95;;
18176;SDS011;9213;50.858;3.964;2023-06-19T04:45:50;17.87;;;15.10;;
18176;SDS011;9213;50.858;3.964;2023-06-19T04:48:17;17.43;;;15.50;;
18176;SDS011;9213;50.858;3.964;2023-06-19T04:50:45;16.85;;;14.98;;
18176;SDS011;9213;50.858;3.964;2023-06-19T04:53:12;16.00;;;14.23;;
18176;SDS011;9213;50.858;3.964;2023-06-19T04:55:39;16.23;;;14.43;;
18176;SDS011;9213;50.858;3.964;2023-06-19T04:58:06;17.90;;;15.57;;
18176;SDS011;9213;50.858;3.964;2023-06-19T05:00:33;17.30;;;14.77;;
18176;SDS011;9213;50.858;3.964;2023-06-19T05:03:00;17.17;;;15.38;;
18176;SDS011;9213;50.858;3.964;2023-06-19T05:05:27;22.52;;;16.25;;
18176;SDS011;9213;50.858;3.964;2023-06-19T05:07:55;19.10;;;15.18;;
18176;SDS011;9213;50.858;3.964;2023-06-19T05:10:22;20.23;;;15.13;;
18176;SDS011;9213;50.858;3.964;2023-06-19T05:12:49;18.45;;;15.52;;
18176;SDS011;9213;50.858;3.964;2023-06-19T05:15:16;18.00;;;16.08;;
18176;SDS011;9213;50.858;3.964;2023-06-19T05:17:43;18.27;;;15.40;;
18176;SDS011;9213;50.858;3.964;2023-06-19T05:20:11;17.33;;;15.60;;
18176;SDS011;9213;50.858;3.964;2023-06-19T05:22:39;18.55;;;16.48;;
18176;SDS011;9213;50.858;3.964;2023-06-19T05:25:07;19.63;;;16.20;;
18176;SDS011;9213;50.858;3.964;2023-06-19T05:27:35;17.15;;;15.20;;
18176;SDS011;9213;50.858;3.964;2023-06-19T05:30:02;20.80;;;15.75;;
18176;SDS011;9213;50.858;3.964;2023-06-19T05:32:30;18.88;;;16.02;;
18176;SDS011;9213;50.858;3.964;2023-06-19T05:34:57;18.88;;;15.18;;
18176;SDS011;9213;50.858;3.964;2023-06-19T05:37:23;17.90;;;16.02;;
18176;SDS011;9213;50.858;3.964;2023-06-19T05:39:52;18.02;;;15.93;;
18176;SDS011;9213;50.858;3.964;2023-06-19T05:42:20;22.98;;;15.68;;
18176;SDS011;9213;50.858;3.964;2023-06-19T05:44:47;20.40;;;15.68;;
18176;SDS011;9213;50.858;3.964;2023-06-19T05:47:14;18.50;;;16.45;;
18176;SDS011;9213;50.858;3.964;2023-06-19T05:49:42;18.70;;;16.00;;
18176;SDS011;9213;50.858;3.964;2023-06-19T05:52:09;20.90;;;16.85;;
18176;SDS011;9213;50.858;3.964;2023-06-19T05:54:35;19.23;;;17.02;;
18176;SDS011;9213;50.858;3.964;2023-06-19T05:57:02;17.40;;;15.52;;
18176;SDS011;9213;50.858;3.964;2023-06-19T05:59:31;20.15;;;17.10;;
18176;SDS011;9213;50.858;3.964;2023-06-19T06:01:58;19.02;;;16.90;;
18176;SDS011;9213;50.858;3.964;2023-06-19T06:04:25;17.25;;;15.45;;
18176;SDS011;9213;50.858;3.964;2023-06-19T06:06:52;17.58;;;15.63;;
18176;SDS011;9213;50.858;3.964;2023-06-19T06:09:19;18.60;;;16.65;;
18176;SDS011;9213;50.858;3.964;2023-06-19T06:11:46;21.08;;;16.35;;
18176;SDS011;9213;50.858;3.964;2023-06-19T06:14:13;21.13;;;16.05;;
18176;SDS011;9213;50.858;3.964;2023-06-19T06:16:41;22.77;;;15.98;;
18176;SDS011;9213;50.858;3.964;2023-06-19T06:19:08;20.02;;;16.50;;
18176;SDS011;9213;50.858;3.964;2023-06-19T06:21:35;18.95;;;15.52;;
18176;SDS011;9213;50.858;3.964;2023-06-19T06:24:02;17.80;;;14.93;;
18176;SDS011;9213;50.858;3.964;2023-06-19T06:26:29;18.30;;;15.57;;
18176;SDS011;9213;50.858;3.964;2023-06-19T06:28:56;19.85;;;15.57;;
18176;SDS011;9213;50.858;3.964;2023-06-19T06:31:23;18.48;;;15.43;;
18176;SDS011;9213;50.858;3.964;2023-06-19T06:33:51;20.98;;;15.93;;
18176;SDS011;9213;50.858;3.964;2023-06-19T06:36:18;19.27;;;16.17;;
18176;SDS011;9213;50.858;3.964;2023-06-19T06:38:45;18.05;;;15.65;;
18176;SDS011;9213;50.858;3.964;2023-06-19T06:41:12;18.83;;;14.77;;
18176;SDS011;9213;50.858;3.964;2023-06-19T06:43:40;17.35;;;15.27;;
18176;SDS011;9213;50.858;3.964;2023-06-19T06:46:08;17.35;;;14.38;;
18176;SDS011;9213;50.858;3.964;2023-06-19T06:48:35;19.75;;;13.95;;
18176;SDS011;9213;50.858;3.964;2023-06-19T06:51:03;17.35;;;13.65;;
18176;SDS011;9213;50.858;3.964;2023-06-19T06:53:30;17.25;;;14.32;;
18176;SDS011;9213;50.858;3.964;2023-06-19T06:55:58;16.98;;;14.13;;
18176;SDS011;9213;50.858;3.964;2023-06-19T06:58:25;17.17;;;14.15;;
18176;SDS011;9213;50.858;3.964;2023-06-19T07:00:52;20.55;;;15.00;;
18176;SDS011;9213;50.858;3.964;2023-06-19T07:03:19;17.83;;;14.70;;
18176;SDS011;9213;50.858;3.964;2023-06-19T07:05:47;16.38;;;13.52;;
18176;SDS011;9213;50.858;3.964;2023-06-19T07:08:15;18.52;;;14.35;;
18176;SDS011;9213;50.858;3.964;2023-06-19T07:10:42;17.38;;;14.00;;
18176;SDS011;9213;50.858;3.964;2023-06-19T07:13:09;15.18;;;13.57;;
18176;SDS011;9213;50.858;3.964;2023-06-19T07:15:36;16.13;;;13.77;;
18176;SDS011;9213;50.858;3.964;2023-06-19T07:18:03;15.60;;;13.25;;
18176;SDS011;9213;50.858;3.964;2023-06-19T07:20:30;15.90;;;13.93;;
18176;SDS011;9213;50.858;3.964;2023-06-19T07:22:57;14.95;;;13.18;;
18176;SDS011;9213;50.858;3.964;2023-06-19T07:25:26;14.45;;;12.93;;
18176;SDS011;9213;50.858;3.964;2023-06-19T07:27:53;15.70;;;12.90;;
18176;SDS011;9213;50.858;3.964;2023-06-19T07:30:20;13.73;;;12.18;;
18176;SDS011;9213;50.858;3.964;2023-06-19T07:32:47;14.30;;;12.10;;
18176;SDS011;9213;50.858;3.964;2023-06-19T07:35:14;13.02;;;11.48;;
18176;SDS011;9213;50.858;3.964;2023-06-19T07:37:41;13.38;;;11.52;;
18176;SDS011;9213;50.858;3.964;2023-06-19T07:40:08;16.17;;;12.63;;
18176;SDS011;9213;50.858;3.964;2023-06-19T07:42:37;14.75;;;13.27;;
18176;SDS011;9213;50.858;3.964;2023-06-19T07:45:05;14.80;;;13.30;;
18176;SDS011;9213;50.858;3.964;2023-06-19T07:47:32;16.15;;;13.70;;
18176;SDS011;9213;50.858;3.964;2023-06-19T07:49:59;15.55;;;13.07;;
18176;SDS011;9213;50.858;3.964;2023-06-19T07:52:26;14.60;;;11.30;;
18176;SDS011;9213;50.858;3.964;2023-06-19T07:54:53;15.48;;;12.38;;
18176;SDS011;9213;50.858;3.964;2023-06-19T07:57:22;13.93;;;12.38;;
18176;SDS011;9213;50.858;3.964;2023-06-19T07:59:52;14.55;;;13.05;;
18176;SDS011;9213;50.858;3.964;2023-06-19T08:02:20;14.82;;;13.35;;
18176;SDS011;9213;50.858;3.964;2023-06-19T08:04:47;16.58;;;13.32;;
18176;SDS011;9213;50.858;3.964;2023-06-19T08:07:14;15.63;;;12.43;;
18176;SDS011;9213;50.858;3.964;2023-06-19T08:09:41;14.73;;;11.55;;
18176;SDS011;9213;50.858;3.964;2023-06-19T08:12:08;12.82;;;11.50;;
18176;SDS011;9213;50.858;3.964;2023-06-19T08:14:34;14.02;;;12.63;;
18176;SDS011;9213;50.858;3.964;2023-06-19T08:17:05;15.60;;;14.07;;
18176;SDS011;9213;50.858;3.964;2023-06-19T08:19:32;15.70;;;13.90;;
18176;SDS011;9213;50.858;3.964;2023-06-19T08:21:59;15.77;;;13.02;;
18176;SDS011;9213;50.858;3.964;2023-06-19T08:24:25;14.50;;;13.10;;
18176;SDS011;9213;50.858;3.964;2023-06-19T08:26:54;17.17;;;13.75;;
18176;SDS011;9213;50.858;3.964;2023-06-19T08:29:20;15.90;;;12.82;;
18176;SDS011;9213;50.858;3.964;2023-06-19T08:31:48;14.73;;;12.80;;
18176;SDS011;9213;50.858;3.964;2023-06-19T08:34:16;13.95;;;12.55;;
18176;SDS011;9213;50.858;3.964;2023-06-19T08:36:43;13.88;;;12.57;;
18176;SDS011;9213;50.858;3.964;2023-06-19T08:39:10;14.40;;;12.63;;
18176;SDS011;9213;50.858;3.964;2023-06-19T08:41:37;13.65;;;12.30;;
18176;SDS011;9213;50.858;3.964;2023-06-19T08:44:06;12.90;;;11.60;;
18176;SDS011;9213;50.858;3.964;2023-06-19T08:46:33;13.50;;;12.10;;
18176;SDS011;9213;50.858;3.964;2023-06-19T08:49:02;13.82;;;12.35;;
18176;SDS011;9213;50.858;3.964;2023-06-19T08:51:32;18.80;;;12.85;;
18176;SDS011;9213;50.858;3.964;2023-06-19T08:54:00;14.05;;;12.20;;
18176;SDS011;9213;50.858;3.964;2023-06-19T08:56:29;13.52;;;11.52;;
18176;SDS011;9213;50.858;3.964;2023-06-19T08:59:07;15.68;;;12.18;;
18176;SDS011;9213;50.858;3.964;2023-06-19T09:01:34;10.82;;;9.77;;
18176;SDS011;9213;50.858;3.964;2023-06-19T09:04:07;13.95;;;10.68;;
18176;SDS011;9213;50.858;3.964;2023-06-19T09:06:36;14.82;;;10.77;;
18176;SDS011;9213;50.858;3.964;2023-06-19T09:09:12;15.77;;;12.68;;
18176;SDS011;9213;50.858;3.964;2023-06-19T09:11:40;11.85;;;10.48;;
18176;SDS011;9213;50.858;3.964;2023-06-19T09:14:08;12.80;;;10.00;;
18176;SDS011;9213;50.858;3.964;2023-06-19T09:16:36;13.10;;;9.23;;
18176;SDS011;9213;50.858;3.964;2023-06-19T09:19:04;12.68;;;9.95;;
18176;SDS011;9213;50.858;3.964;2023-06-19T09:21:31;17.75;;;12.88;;
18176;SDS011;9213;50.858;3.964;2023-06-19T09:24:06;13.38;;;12.00;;
18176;SDS011;9213;50.858;3.964;2023-06-19T09:26:34;12.35;;;10.90;;
18176;SDS011;9213;50.858;3.964;2023-06-19T09:29:11;12.35;;;11.05;;
18176;SDS011;9213;50.858;3.964;2023-06-19T09:31:38;14.63;;;11.23;;
18176;SDS011;9213;50.858;3.964;2023-06-19T09:34:06;14.32;;;11.57;;
18176;SDS011;9213;50.858;3.964;2023-06-19T09:36:33;12.98;;;11.52;;
18176;SDS011;9213;50.858;3.964;2023-06-19T09:39:02;12.15;;;10.95;;
18176;SDS011;9213;50.858;3.964;2023-06-19T09:41:31;14.05;;;11.73;;
18176;SDS011;9213;50.858;3.964;2023-06-19T09:44:00;13.38;;;11.77;;
18176;SDS011;9213;50.858;3.964;2023-06-19T09:46:37;13.73;;;11.68;;
18176;SDS011;9213;50.858;3.964;2023-06-19T09:49:07;14.13;;;12.10;;
18176;SDS011;9213;50.858;3.964;2023-06-19T09:51:37;16.80;;;13.52;;
18176;SDS011;9213;50.858;3.964;2023-06-19T09:54:07;13.65;;;12.25;;
18176;SDS011;9213;50.858;3.964;2023-06-19T09:56:38;15.15;;;12.75;;
18176;SDS011;9213;50.858;3.964;2023-06-19T09:59:05;16.60;;;13.80;;
18176;SDS011;9213;50.858;3.964;2023-06-19T10:01:34;15.10;;;13.55;;
18176;SDS011;9213;50.858;3.964;2023-06-19T10:04:03;16.75;;;15.07;;
18176;SDS011;9213;50.858;3.964;2023-06-19T10:06:31;15.70;;;14.05;;
18176;SDS011;9213;50.858;3.964;2023-06-19T10:09:05;15.70;;;13.57;;
18176;SDS011;9213;50.858;3.964;2023-06-19T10:11:48;15.75;;;13.80;;
18176;SDS011;9213;50.858;3.964;2023-06-19T10:14:17;15.55;;;13.75;;
18176;SDS011;9213;50.858;3.964;2023-06-19T10:16:44;14.13;;;12.63;;
18176;SDS011;9213;50.858;3.964;2023-06-19T10:19:12;13.05;;;11.63;;
18176;SDS011;9213;50.858;3.964;2023-06-19T10:21:44;12.45;;;11.15;;
18176;SDS011;9213;50.858;3.964;2023-06-19T10:24:13;12.15;;;10.82;;
18176;SDS011;9213;50.858;3.964;2023-06-19T10:26:43;12.27;;;10.43;;
18176;SDS011;9213;50.858;3.964;2023-06-19T10:29:15;11.23;;;10.07;;
18176;SDS011;9213;50.858;3.964;2023-06-19T10:31:42;10.60;;;9.30;;
18176;SDS011;9213;50.858;3.964;2023-06-19T10:34:10;10.45;;;8.52;;
18176;SDS011;9213;50.858;3.964;2023-06-19T10:36:38;10.52;;;7.65;;
18176;SDS011;9213;50.858;3.964;2023-06-19T10:39:05;10.50;;;8.27;;
18176;SDS011;9213;50.858;3.964;2023-06-19T10:41:32;9.93;;;8.95;;
18176;SDS011;9213;50.858;3.964;2023-06-19T10:44:00;9.73;;;8.73;;
18176;SDS011;9213;50.858;3.964;2023-06-19T10:46:30;10.90;;;7.53;;
18176;SDS011;9213;50.858;3.964;2023-06-19T10:48:58;10.80;;;7.97;;
18176;SDS011;9213;50.858;3.964;2023-06-19T10:51:26;11.00;;;7.60;;
18176;SDS011;9213;50.858;3.964;2023-06-19T10:53:54;9.63;;;7.57;;
18176;SDS011;9213;50.858;3.964;2023-06-19T10:56:21;9.35;;;7.32;;
18176;SDS011;9213;50.858;3.964;2023-06-19T10:58:55;8.07;;;6.93;;
18176;SDS011;9213;50.858;3.964;2023-06-19T11:01:23;8.13;;;7.20;;
18176;SDS011;9213;50.858;3.964;2023-06-19T11:04:01;8.10;;;6.90;;
18176;SDS011;9213;50.858;3.964;2023-06-19T11:06:30;8.13;;;6.38;;
18176;SDS011;9213;50.858;3.964;2023-06-19T11:08:58;9.07;;;6.20;;
18176;SDS011;9213;50.858;3.964;2023-06-19T11:11:34;9.20;;;6.72;;
18176;SDS011;9213;50.858;3.964;2023-06-19T11:14:02;10.80;;;7.85;;
18176;SDS011;9213;50.858;3.964;2023-06-19T11:16:30;9.65;;;7.55;;
18176;SDS011;9213;50.858;3.964;2023-06-19T11:18:58;9.02;;;8.00;;
18176;SDS011;9213;50.858;3.964;2023-06-19T11:21:29;8.38;;;7.55;;
18176;SDS011;9213;50.858;3.964;2023-06-19T11:24:01;8.35;;;7.38;;
18176;SDS011;9213;50.858;3.964;2023-06-19T11:26:29;10.07;;;7.50;;
18176;SDS011;9213;50.858;3.964;2023-06-19T11:28:56;10.90;;;7.60;;
18176;SDS011;9213;50.858;3.964;2023-06-19T11:31:26;7.85;;;7.15;;
18176;SDS011;9213;50.858;3.964;2023-06-19T11:33:59;8.10;;;6.65;;
18176;SDS011;9213;50.858;3.964;2023-06-19T11:36:27;9.88;;;6.88;;
18176;SDS011;9213;50.858;3.964;2023-06-19T11:38:54;11.27;;;7.47;;
18176;SDS011;9213;50.858;3.964;2023-06-19T11:41:25;8.57;;;7.45;;
18176;SDS011;9213;50.858;3.964;2023-06-19T11:44:02;10.68;;;7.82;;
18176;SDS011;9213;50.858;3.964;2023-06-19T11:46:31;8.70;;;6.78;;
18176;SDS011;9213;50.858;3.964;2023-06-19T11:49:09;8.48;;;6.55;;
18176;SDS011;9213;50.858;3.964;2023-06-19T11:51:38;8.23;;;6.63;;
18176;SDS011;9213;50.858;3.964;2023-06-19T11:54:05;9.65;;;6.75;;
18176;SDS011;9213;50.858;3.964;2023-06-19T11:56:33;10.40;;;7.38;;
18176;SDS011;9213;50.858;3.964;2023-06-19T11:59:01;7.38;;;6.65;;
18176;SDS011;9213;50.858;3.964;2023-06-19T12:01:28;11.68;;;6.90;;
18176;SDS011;9213;50.858;3.964;2023-06-19T12:03:55;12.52;;;6.13;;
18176;SDS011;9213;50.858;3.964;2023-06-19T12:06:24;7.60;;;6.80;;
18176;SDS011;9213;50.858;3.964;2023-06-19T12:08:51;11.20;;;7.38;;
18176;SDS011;9213;50.858;3.964;2023-06-19T12:11:18;7.85;;;6.65;;
18176;SDS011;9213;50.858;3.964;2023-06-19T12:13:45;6.88;;;6.22;;
18176;SDS011;9213;50.858;3.964;2023-06-19T12:16:12;10.35;;;6.28;;
18176;SDS011;9213;50.858;3.964;2023-06-19T12:18:40;9.63;;;6.57;;
18176;SDS011;9213;50.858;3.964;2023-06-19T12:21:07;7.90;;;6.43;;
18176;SDS011;9213;50.858;3.964;2023-06-19T12:23:36;10.00;;;6.60;;
18176;SDS011;9213;50.858;3.964;2023-06-19T12:26:03;8.15;;;6.60;;
18176;SDS011;9213;50.858;3.964;2023-06-19T12:28:29;8.07;;;5.93;;
18176;SDS011;9213;50.858;3.964;2023-06-19T12:30:56;6.72;;;5.97;;
18176;SDS011;9213;50.858;3.964;2023-06-19T12:33:23;9.10;;;6.30;;
18176;SDS011;9213;50.858;3.964;2023-06-19T12:35:50;8.45;;;6.28;;
18176;SDS011;9213;50.858;3.964;2023-06-19T12:38:17;9.45;;;7.30;;
18176;SDS011;9213;50.858;3.964;2023-06-19T12:40:45;12.82;;;6.80;;
18176;SDS011;9213;50.858;3.964;2023-06-19T12:43:12;6.68;;;6.05;;
18176;SDS011;9213;50.858;3.964;2023-06-19T12:45:39;7.55;;;6.70;;
18176;SDS011;9213;50.858;3.964;2023-06-19T12:48:07;9.38;;;6.07;;
18176;SDS011;9213;50.858;3.964;2023-06-19T12:50:36;11.27;;;6.22;;
18176;SDS011;9213;50.858;3.964;2023-06-19T12:53:03;6.72;;;5.60;;
18176;SDS011;9213;50.858;3.964;2023-06-19T12:55:30;9.25;;;6.18;;
18176;SDS011;9213;50.858;3.964;2023-06-19T12:57:58;8.68;;;5.65;;
18176;SDS011;9213;50.858;3.964;2023-06-19T13:00:25;8.00;;;6.28;;
18176;SDS011;9213;50.858;3.964;2023-06-19T13:02:52;6.90;;;5.30;;
18176;SDS011;9213;50.858;3.964;2023-06-19T13:05:18;7.88;;;5.38;;
18176;SDS011;9213;50.858;3.964;2023-06-19T13:07:45;5.78;;;5.10;;
18176;SDS011;9213;50.858;3.964;2023-06-19T13:10:12;7.15;;;5.30;;
18176;SDS011;9213;50.858;3.964;2023-06-19T13:12:39;7.32;;;5.53;;
18176;SDS011;9213;50.858;3.964;2023-06-19T13:15:08;6.65;;;5.00;;
18176;SDS011;9213;50.858;3.964;2023-06-19T13:17:35;7.00;;;5.53;;
18176;SDS011;9213;50.858;3.964;2023-06-19T13:20:03;8.27;;;5.43;;
18176;SDS011;9213;50.858;3.964;2023-06-19T13:22:31;8.13;;;5.88;;
18176;SDS011;9213;50.858;3.964;2023-06-19T13:24:58;7.40;;;5.78;;
18176;SDS011;9213;50.858;3.964;2023-06-19T13:27:24;8.75;;;5.80;;
18176;SDS011;9213;50.858;3.964;2023-06-19T13:29:53;9.38;;;5.30;;
18176;SDS011;9213;50.858;3.964;2023-06-19T13:32:22;7.70;;;5.35;;
18176;SDS011;9213;50.858;3.964;2023-06-19T13:34:49;7.50;;;5.20;;
18176;SDS011;9213;50.858;3.964;2023-06-19T13:37:17;5.07;;;4.57;;
18176;SDS011;9213;50.858;3.964;2023-06-19T13:39:45;6.25;;;4.60;;
18176;SDS011;9213;50.858;3.964;2023-06-19T13:42:12;7.75;;;5.15;;
18176;SDS011;9213;50.858;3.964;2023-06-19T13:44:39;7.00;;;4.68;;
18176;SDS011;9213;50.858;3.964;2023-06-19T13:47:06;7.20;;;5.20;;
18176;SDS011;9213;50.858;3.964;2023-06-19T13:49:34;5.80;;;4.35;;
18176;SDS011;9213;50.858;3.964;2023-06-19T13:52:01;6.70;;;4.85;;
18176;SDS011;9213;50.858;3.964;2023-06-19T13:54:28;5.68;;;4.70;;
18176;SDS011;9213;50.858;3.964;2023-06-19T13:56:55;7.15;;;4.78;;
18176;SDS011;9213;50.858;3.964;2023-06-19T13:59:22;8.73;;;5.63;;
18176;SDS011;9213;50.858;3.964;2023-06-19T14:01:49;6.30;;;5.13;;
18176;SDS011;9213;50.858;3.964;2023-06-19T14:04:16;6.88;;;5.20;;
18176;SDS011;9213;50.858;3.964;2023-06-19T14:06:44;8.95;;;5.20;;
18176;SDS011;9213;50.858;3.964;2023-06-19T14:09:11;5.75;;;4.90;;
18176;SDS011;9213;50.858;3.964;2023-06-19T14:11:39;6.38;;;5.40;;
18176;SDS011;9213;50.858;3.964;2023-06-19T14:14:06;6.95;;;5.03;;
18176;SDS011;9213;50.858;3.964;2023-06-19T14:16:33;7.30;;;5.35;;
18176;SDS011;9213;50.858;3.964;2023-06-19T14:19:00;6.72;;;4.68;;
18176;SDS011;9213;50.858;3.964;2023-06-19T14:21:27;5.40;;;4.90;;
18176;SDS011;9213;50.858;3.964;2023-06-19T14:23:55;5.97;;;4.63;;
18176;SDS011;9213;50.858;3.964;2023-06-19T14:26:22;6.60;;;4.93;;
18176;SDS011;9213;50.858;3.964;2023-06-19T14:28:49;5.65;;;5.13;;
18176;SDS011;9213;50.858;3.964;2023-06-19T14:31:20;8.02;;;4.93;;
18176;SDS011;9213;50.858;3.964;2023-06-19T14:33:47;8.40;;;4.80;;
18176;SDS011;9213;50.858;3.964;2023-06-19T14:36:14;9.02;;;5.20;;
18176;SDS011;9213;50.858;3.964;2023-06-19T14:38:41;9.18;;;5.20;;
18176;SDS011;9213;50.858;3.964;2023-06-19T14:41:09;5.40;;;4.90;;
18176;SDS011;9213;50.858;3.964;2023-06-19T14:43:36;6.53;;;5.22;;
18176;SDS011;9213;50.858;3.964;2023-06-19T14:46:02;7.63;;;5.20;;
18176;SDS011;9213;50.858;3.964;2023-06-19T14:48:30;8.25;;;4.90;;
18176;SDS011;9213;50.858;3.964;2023-06-19T14:50:57;5.25;;;4.75;;